Time;durP1;ratioP1;P1;durP2;ratioP2;P2;SDS_P1;SDS_P2;PMS_P1;PMS_P2;Temp;Humidity;BMP_temperature;BMP_pressure;BME280_temperature;BME280_humidity;BME280_pressure;Samples;Min_cycle;Max_cycle;Signal;HPM_P1;HPM_P2
2023/08/12 00:01:39;;;;;;;4.40;3.92;;;17.20;99.90;;;;;;5024847;28;21526;-60
2023/08/12 00:04:07;;;;;;;7.40;3.95;;;17.20;99.90;;;;;;5027813;28;20021;-58
2023/08/12 00:06:33;;;;;;;4.57;4.20;;;17.20;99.90;;;;;;5030014;28;20417;-60
2023/08/12 00:08:59;;;;;;;4.00;3.70;;;17.20;99.90;;;;;;5027744;28;20037;-57
2023/08/12 00:11:24;;;;;;;5.65;4.43;;;17.20;99.90;;;;;;5023010;28;20034;-57
2023/08/12 00:13:50;;;;;;;4.55;4.05;;;17.20;99.90;;;;;;5031899;28;20029;-56
2023/08/12 00:16:15;;;;;;;4.40;4.00;;;17.20;99.90;;;;;;5029280;28;20526;-57
2023/08/12 00:18:41;;;;;;;5.05;4.10;;;17.20;99.90;;;;;;5031350;28;20116;-58
2023/08/12 00:21:11;;;;;;;6.03;4.13;;;17.20;99.90;;;;;;5031015;28;20505;-59
2023/08/12 00:23:41;;;;;;;7.32;3.40;;;17.10;99.90;;;;;;5033310;28;20021;-60
2023/08/12 00:26:07;;;;;;;4.80;3.95;;;17.20;99.90;;;;;;5026756;28;20076;-58
2023/08/12 00:28:34;;;;;;;4.38;3.75;;;17.20;99.90;;;;;;5024059;28;20112;-59
2023/08/12 00:31:00;;;;;;;4.07;3.30;;;17.10;99.90;;;;;;5027251;28;20033;-57
2023/08/12 00:33:25;;;;;;;6.63;3.63;;;17.10;99.90;;;;;;5020974;28;20082;-57
2023/08/12 00:35:51;;;;;;;5.78;3.45;;;17.10;99.90;;;;;;5025406;28;20017;-59
2023/08/12 00:38:17;;;;;;;7.80;3.38;;;17.10;99.90;;;;;;5028189;28;20098;-57
2023/08/12 00:40:43;;;;;;;4.40;3.58;;;17.10;99.90;;;;;;5026998;28;20076;-58
2023/08/12 00:43:09;;;;;;;3.60;3.30;;;17.00;99.90;;;;;;5032013;28;20150;-60
2023/08/12 00:45:35;;;;;;;4.30;3.90;;;17.00;99.90;;;;;;5030802;28;20114;-61
2023/08/12 00:48:02;;;;;;;4.53;4.13;;;17.00;99.90;;;;;;5027970;28;20495;-59
2023/08/12 00:50:28;;;;;;;5.15;3.75;;;16.90;99.90;;;;;;5022250;28;20026;-60
2023/08/12 00:52:54;;;;;;;4.55;4.15;;;16.90;99.90;;;;;;5020167;28;20512;-60
2023/08/12 00:55:20;;;;;;;5.22;3.75;;;16.90;99.90;;;;;;5029840;28;20095;-59
2023/08/12 00:57:46;;;;;;;5.35;4.20;;;16.90;99.90;;;;;;5026814;28;20493;-60
2023/08/12 01:00:13;;;;;;;4.18;3.60;;;16.80;99.90;;;;;;5024840;28;20405;-59
2023/08/12 01:02:38;;;;;;;4.28;3.88;;;16.80;99.90;;;;;;5023612;28;20482;-60
2023/08/12 01:05:05;;;;;;;4.85;4.32;;;16.70;99.90;;;;;;5019064;28;20039;-60
2023/08/12 01:07:31;;;;;;;3.60;3.28;;;16.60;99.90;;;;;;5027068;28;20022;-58
2023/08/12 01:09:56;;;;;;;4.13;3.75;;;16.50;99.90;;;;;;5025260;28;20379;-60
2023/08/12 01:12:31;;;;;;;4.30;3.92;;;16.40;99.90;;;;;;5028468;28;20032;-58
2023/08/12 01:15:17;;;;;;;5.50;4.10;;;16.40;99.90;;;;;;5026073;28;20548;-59
2023/08/12 01:17:43;;;;;;;14.77;5.40;;;16.40;99.90;;;;;;5027713;28;20030;-58
2023/08/12 01:20:14;;;;;;;5.05;4.65;;;16.40;99.90;;;;;;5026492;28;20179;-58
2023/08/12 01:22:44;;;;;;;4.53;4.17;;;16.40;99.90;;;;;;5028679;28;20026;-59
2023/08/12 01:25:09;;;;;;;5.37;4.33;;;16.50;99.90;;;;;;5026235;28;20053;-59
2023/08/12 01:27:36;;;;;;;5.05;4.43;;;16.50;99.90;;;;;;5026372;28;20099;-59
2023/08/12 01:30:05;;;;;;;5.43;4.97;;;16.50;99.90;;;;;;5025003;28;20022;-60
2023/08/12 01:32:43;;;;;;;9.50;4.95;;;16.50;99.90;;;;;;5024443;28;20514;-59
2023/08/12 01:35:11;;;;;;;7.35;4.40;;;16.50;99.90;;;;;;5024172;28;20038;-59
2023/08/12 01:37:39;;;;;;;4.55;4.15;;;16.50;99.90;;;;;;5022575;28;20029;-60
2023/08/12 01:40:11;;;;;;;4.82;4.43;;;16.50;99.90;;;;;;5028265;28;20422;-58
2023/08/12 01:42:39;;;;;;;5.03;4.53;;;16.50;99.90;;;;;;5022883;28;20041;-60
2023/08/12 01:45:06;;;;;;;5.55;5.03;;;16.50;99.90;;;;;;5030328;28;20037;-60
2023/08/12 01:47:32;;;;;;;4.53;4.22;;;16.50;99.90;;;;;;5029681;28;20045;-57
2023/08/12 01:49:58;;;;;;;5.75;5.22;;;16.50;99.90;;;;;;5023776;28;20053;-59
2023/08/12 01:52:24;;;;;;;4.85;4.35;;;16.50;99.90;;;;;;5027936;28;20070;-57
2023/08/12 01:54:51;;;;;;;4.70;4.30;;;16.40;99.90;;;;;;5026389;28;20044;-59
2023/08/12 01:57:17;;;;;;;4.75;4.35;;;16.40;99.90;;;;;;5021861;28;20029;-57
2023/08/12 01:59:43;;;;;;;5.45;4.63;;;16.40;99.90;;;;;;5035424;28;20661;-57
2023/08/12 02:02:09;;;;;;;5.80;5.10;;;16.40;99.90;;;;;;5027286;28;20033;-59
2023/08/12 02:04:37;;;;;;;5.38;4.97;;;16.40;99.90;;;;;;5025815;28;20033;-58
2023/08/12 02:07:03;;;;;;;5.80;4.75;;;16.40;99.90;;;;;;5028838;28;20041;-60
2023/08/12 02:09:29;;;;;;;5.20;4.70;;;16.40;99.90;;;;;;5031716;28;20041;-61
2023/08/12 02:11:54;;;;;;;5.90;4.45;;;16.30;99.90;;;;;;5028838;28;20029;-58
2023/08/12 02:14:20;;;;;;;6.78;4.70;;;16.30;99.90;;;;;;5024181;28;20494;-59
2023/08/12 02:16:45;;;;;;;5.35;4.68;;;16.20;99.90;;;;;;5028344;28;20132;-60
2023/08/12 02:19:11;;;;;;;5.15;4.32;;;16.20;99.90;;;;;;5029873;28;20164;-60
2023/08/12 02:21:37;;;;;;;5.20;4.80;;;16.20;99.90;;;;;;5030190;28;20152;-60
2023/08/12 02:24:02;;;;;;;5.43;4.97;;;16.20;99.90;;;;;;5030114;28;20923;-61
2023/08/12 02:26:28;;;;;;;8.38;4.88;;;16.20;99.90;;;;;;5026002;28;20377;-59
2023/08/12 02:28:54;;;;;;;5.68;5.18;;;16.20;99.90;;;;;;5022935;28;20029;-56
2023/08/12 02:31:19;;;;;;;5.68;5.18;;;16.20;99.90;;;;;;5020289;28;20530;-59
2023/08/12 02:33:45;;;;;;;7.20;5.80;;;16.10;99.90;;;;;;5030100;28;20029;-58
2023/08/12 02:36:10;;;;;;;5.75;5.25;;;16.10;99.90;;;;;;5030646;28;20501;-58
2023/08/12 02:38:36;;;;;;;5.63;5.13;;;16.10;99.90;;;;;;5024283;28;20026;-60
2023/08/12 02:41:02;;;;;;;9.75;5.50;;;16.10;99.90;;;;;;5024238;28;20424;-58
2023/08/12 02:43:27;;;;;;;5.97;5.28;;;16.10;99.90;;;;;;5031686;28;20039;-58
2023/08/12 02:45:53;;;;;;;6.32;5.75;;;16.10;99.90;;;;;;5030434;28;20049;-58
2023/08/12 02:48:19;;;;;;;9.95;5.47;;;16.10;99.90;;;;;;5032454;28;20075;-58
2023/08/12 02:50:44;;;;;;;5.78;5.38;;;16.10;99.90;;;;;;5032363;28;20024;-58
2023/08/12 02:53:10;;;;;;;5.10;4.60;;;16.10;99.90;;;;;;5029785;28;20112;-59
2023/08/12 02:55:37;;;;;;;4.90;4.07;;;16.10;99.90;;;;;;5026958;28;20490;-58
2023/08/12 02:58:03;;;;;;;6.88;6.28;;;16.00;99.90;;;;;;5026161;28;20026;-58
2023/08/12 03:00:28;;;;;;;7.28;5.68;;;16.00;99.90;;;;;;5031291;28;20409;-57
2023/08/12 03:02:54;;;;;;;5.70;5.20;;;16.00;99.90;;;;;;5026263;28;20658;-59
2023/08/12 03:05:20;;;;;;;6.38;5.30;;;16.00;99.90;;;;;;5026148;28;20072;-61
2023/08/12 03:07:46;;;;;;;6.68;5.10;;;16.00;99.90;;;;;;5029264;28;20029;-60
2023/08/12 03:10:12;;;;;;;7.47;5.63;;;16.00;99.90;;;;;;5029868;28;20109;-60
2023/08/12 03:12:38;;;;;;;5.75;5.25;;;16.00;99.90;;;;;;5030045;28;20075;-59
2023/08/12 03:15:06;;;;;;;5.88;5.15;;;15.90;99.90;;;;;;5031745;28;20017;-60
2023/08/12 03:17:31;;;;;;;5.80;4.65;;;15.90;99.90;;;;;;5028880;28;20013;-61
2023/08/12 03:19:59;;;;;;;4.82;4.50;;;15.90;99.90;;;;;;5027811;28;20048;-59
2023/08/12 03:22:28;;;;;;;6.53;5.72;;;15.90;99.90;;;;;;5028132;28;20037;-57
2023/08/12 03:24:53;;;;;;;6.03;5.53;;;15.90;99.90;;;;;;5033946;28;20034;-60
2023/08/12 03:27:19;;;;;;;6.30;5.70;;;15.90;99.90;;;;;;5034920;28;20031;-59
2023/08/12 03:29:45;;;;;;;6.90;5.88;;;15.90;99.90;;;;;;5032660;28;20022;-59
2023/08/12 03:32:10;;;;;;;5.40;5.00;;;15.90;99.90;;;;;;5025603;28;20040;-58
2023/08/12 03:34:36;;;;;;;5.70;5.30;;;15.90;99.90;;;;;;5023739;28;20375;-58
2023/08/12 03:37:02;;;;;;;5.25;4.75;;;15.90;99.90;;;;;;5029991;28;20043;-60
2023/08/12 03:39:27;;;;;;;6.35;5.80;;;15.90;99.90;;;;;;5026962;28;20039;-59
2023/08/12 03:41:53;;;;;;;6.05;5.57;;;15.90;99.90;;;;;;5026762;28;20095;-58
2023/08/12 03:44:19;;;;;;;6.30;5.72;;;15.90;99.90;;;;;;5023503;28;20021;-60
2023/08/12 03:46:45;;;;;;;6.13;5.53;;;15.90;99.90;;;;;;5023943;28;20034;-58
2023/08/12 03:49:10;;;;;;;5.63;5.03;;;16.00;99.90;;;;;;5025816;28;20084;-60
2023/08/12 03:51:36;;;;;;;5.93;5.43;;;16.00;99.90;;;;;;5025701;28;20029;-59
2023/08/12 03:54:01;;;;;;;6.10;5.60;;;16.00;99.90;;;;;;5026758;28;20040;-59
2023/08/12 03:56:27;;;;;;;6.43;5.93;;;16.00;99.90;;;;;;5029374;28;20086;-59
2023/08/12 03:58:53;;;;;;;5.38;4.88;;;16.00;99.90;;;;;;5026367;28;20064;-59
2023/08/12 04:01:18;;;;;;;5.45;4.95;;;16.00;99.90;;;;;;5028790;28;20037;-60
2023/08/12 04:03:44;;;;;;;5.97;5.45;;;16.00;99.90;;;;;;5027708;28;20460;-59
2023/08/12 04:06:09;;;;;;;5.90;5.40;;;16.00;99.90;;;;;;5029033;28;20029;-60
2023/08/12 04:08:35;;;;;;;6.63;5.50;;;16.00;99.90;;;;;;5029213;28;20021;-59
2023/08/12 04:11:01;;;;;;;7.57;5.53;;;16.00;99.90;;;;;;5025439;28;20037;-60
2023/08/12 04:13:26;;;;;;;6.53;5.43;;;16.00;99.90;;;;;;5026859;28;20750;-60
2023/08/12 04:15:55;;;;;;;5.38;4.95;;;16.00;99.90;;;;;;5027160;28;20037;-59
2023/08/12 04:18:21;;;;;;;5.70;4.68;;;16.00;99.90;;;;;;5026617;28;20034;-61
2023/08/12 04:20:49;;;;;;;6.15;5.55;;;16.00;99.90;;;;;;5028510;28;20036;-59
2023/08/12 04:23:15;;;;;;;6.68;5.03;;;16.10;99.90;;;;;;5029433;28;20029;-59
2023/08/12 04:25:44;;;;;;;5.53;5.13;;;16.10;99.90;;;;;;5021709;28;20028;-59
2023/08/12 04:28:10;;;;;;;5.72;5.22;;;16.10;99.90;;;;;;5031854;28;20021;-58
2023/08/12 04:30:40;;;;;;;5.80;5.30;;;16.20;99.90;;;;;;5033136;28;20110;-59
2023/08/12 04:33:05;;;;;;;6.75;5.75;;;16.20;99.90;;;;;;5030499;28;20045;-60
2023/08/12 04:35:32;;;;;;;5.55;5.13;;;16.30;99.90;;;;;;5025187;28;20410;-58
2023/08/12 04:37:57;;;;;;;5.95;5.45;;;16.30;99.90;;;;;;5025111;28;20078;-60
2023/08/12 04:40:23;;;;;;;5.00;4.70;;;16.30;99.90;;;;;;5027399;28;20026;-58
2023/08/12 04:42:49;;;;;;;5.80;5.20;;;16.30;99.90;;;;;;5028170;28;20618;-59
2023/08/12 04:45:14;;;;;;;5.07;4.57;;;16.30;99.90;;;;;;5030504;28;20029;-59
2023/08/12 04:47:40;;;;;;;5.32;4.82;;;16.30;99.90;;;;;;5028912;28;20033;-59
2023/08/12 04:50:06;;;;;;;5.82;4.78;;;16.30;99.90;;;;;;5025466;28;20037;-59
2023/08/12 04:52:32;;;;;;;5.55;4.57;;;16.40;99.90;;;;;;5025490;28;20041;-60
2023/08/12 04:54:57;;;;;;;6.63;4.97;;;16.40;99.90;;;;;;5023859;28;20405;-57
2023/08/12 04:57:23;;;;;;;5.30;4.88;;;16.40;99.90;;;;;;5023332;28;20025;-57
2023/08/12 04:59:49;;;;;;;6.63;4.93;;;16.50;99.90;;;;;;5017901;28;20510;-59
2023/08/12 05:02:14;;;;;;;5.65;4.93;;;16.50;99.90;;;;;;5018197;28;20041;-59
2023/08/12 05:04:40;;;;;;;6.97;4.55;;;16.60;99.90;;;;;;5021961;28;20092;-60
2023/08/12 05:07:06;;;;;;;6.53;4.63;;;16.60;99.90;;;;;;5018945;28;20196;-59
2023/08/12 05:09:31;;;;;;;4.78;4.38;;;16.60;99.90;;;;;;5017842;28;20026;-59
2023/08/12 05:11:57;;;;;;;4.80;4.45;;;16.70;99.90;;;;;;5018477;28;20052;-59
2023/08/12 05:14:22;;;;;;;6.97;4.65;;;16.70;99.90;;;;;;5027282;28;20462;-59
2023/08/12 05:16:48;;;;;;;4.82;4.50;;;16.70;99.90;;;;;;5027345;28;20040;-61
2023/08/12 05:19:14;;;;;;;6.20;4.88;;;16.70;99.90;;;;;;5026567;28;20037;-59
2023/08/12 05:21:40;;;;;;;4.85;4.40;;;16.70;99.90;;;;;;5025797;28;20378;-60
2023/08/12 05:24:06;;;;;;;5.63;5.22;;;16.80;99.90;;;;;;5022586;28;20029;-60
2023/08/12 05:26:33;;;;;;;5.00;4.60;;;16.80;99.90;;;;;;5023849;28;20109;-60
2023/08/12 05:28:59;;;;;;;5.80;4.55;;;16.90;99.90;;;;;;5031986;28;20045;-59
2023/08/12 05:31:24;;;;;;;6.45;4.30;;;16.90;99.90;;;;;;5032923;28;20067;-58
2023/08/12 05:33:51;;;;;;;8.25;4.60;;;17.00;99.90;;;;;;5027616;28;20038;-59
2023/08/12 05:36:16;;;;;;;5.32;4.68;;;17.10;99.90;;;;;;5032228;28;20040;-57
2023/08/12 05:38:42;;;;;;;4.93;4.43;;;17.30;99.90;;;;;;5031521;28;20033;-60
2023/08/12 05:41:08;;;;;;;5.13;4.60;;;17.40;99.90;;;;;;5032168;28;20132;-58
2023/08/12 05:43:34;;;;;;;5.95;4.10;;;17.60;99.90;;;;;;5031744;28;20509;-60
2023/08/12 05:45:59;;;;;;;4.07;3.67;;;17.80;99.90;;;;;;5029701;28;20041;-58
2023/08/12 05:48:25;;;;;;;4.38;3.75;;;18.00;99.90;;;;;;5033369;28;20469;-59
2023/08/12 05:50:50;;;;;;;4.25;3.90;;;18.20;99.90;;;;;;5034182;28;20030;-58
2023/08/12 05:53:16;;;;;;;3.88;3.55;;;18.40;99.90;;;;;;5032294;28;20287;-57
2023/08/12 05:55:42;;;;;;;4.45;4.05;;;18.60;99.90;;;;;;5034775;28;20129;-59
2023/08/12 05:58:07;;;;;;;3.95;3.55;;;18.70;99.90;;;;;;5035546;28;20028;-58
2023/08/12 06:00:33;;;;;;;6.38;4.30;;;18.90;99.90;;;;;;5026387;28;20025;-59
2023/08/12 06:02:59;;;;;;;4.28;3.88;;;19.00;99.90;;;;;;5030835;28;20117;-60
2023/08/12 06:05:24;;;;;;;3.70;3.40;;;19.20;99.90;;;;;;5028663;28;20122;-59
2023/08/12 06:07:50;;;;;;;5.75;3.42;;;19.40;99.90;;;;;;5031798;28;20052;-59
2023/08/12 06:10:15;;;;;;;5.43;3.67;;;19.50;99.90;;;;;;5032180;28;20033;-60
2023/08/12 06:12:41;;;;;;;3.17;2.88;;;19.60;99.90;;;;;;5031038;28;20176;-59
2023/08/12 06:15:07;;;;;;;2.97;2.78;;;19.70;99.90;;;;;;5027774;28;20502;-60
2023/08/12 06:17:32;;;;;;;3.70;3.40;;;19.90;99.90;;;;;;5025781;28;20058;-60
2023/08/12 06:19:58;;;;;;;3.53;3.17;;;20.00;99.90;;;;;;5034461;28;20473;-58
2023/08/12 06:22:24;;;;;;;3.90;3.60;;;20.00;99.90;;;;;;5027738;28;20034;-60
2023/08/12 06:24:49;;;;;;;3.55;3.30;;;20.10;99.90;;;;;;5031825;28;20040;-60
2023/08/12 06:27:15;;;;;;;3.97;3.08;;;20.10;99.90;;;;;;5024997;28;20482;-58
2023/08/12 06:29:40;;;;;;;4.10;2.92;;;20.10;99.90;;;;;;5023682;28;20032;-61
2023/08/12 06:32:06;;;;;;;5.10;2.70;;;20.20;99.90;;;;;;5026913;28;20501;-59
2023/08/12 06:34:31;;;;;;;6.40;3.63;;;20.30;99.90;;;;;;5024427;28;20022;-58
2023/08/12 06:36:57;;;;;;;6.55;5.95;;;20.20;99.90;;;;;;5026741;28;20493;-60
2023/08/12 06:39:23;;;;;;;6.30;5.70;;;20.20;99.90;;;;;;5029595;28;20030;-57
2023/08/12 06:41:48;;;;;;;6.32;5.65;;;20.10;99.90;;;;;;5028693;28;20486;-57
2023/08/12 06:44:14;;;;;;;8.07;6.10;;;20.00;99.90;;;;;;5033197;28;20028;-58
2023/08/12 06:46:39;;;;;;;5.30;4.80;;;19.90;99.90;;;;;;5031036;28;20033;-58
2023/08/12 06:49:05;;;;;;;8.65;4.00;;;19.80;99.90;;;;;;5030244;28;20448;-59
2023/08/12 06:51:31;;;;;;;4.75;3.75;;;19.70;99.90;;;;;;5029413;28;20036;-59
2023/08/12 06:53:56;;;;;;;4.43;4.05;;;19.60;99.90;;;;;;5031057;28;20030;-58
2023/08/12 06:56:22;;;;;;;3.42;3.13;;;19.50;99.90;;;;;;5030933;28;20026;-59
2023/08/12 06:58:47;;;;;;;7.47;3.85;;;19.50;99.90;;;;;;5031432;28;20090;-57
2023/08/12 07:01:13;;;;;;;3.38;2.50;;;19.50;99.90;;;;;;5032980;28;20486;-58
2023/08/12 07:03:39;;;;;;;4.28;3.08;;;19.40;99.90;;;;;;5028625;28;20065;-60
2023/08/12 07:06:04;;;;;;;3.72;3.13;;;19.50;99.90;;;;;;5025115;28;20191;-60
2023/08/12 07:08:31;;;;;;;3.80;3.20;;;19.50;99.90;;;;;;5029168;28;20021;-59
2023/08/12 07:10:56;;;;;;;4.05;3.10;;;19.50;99.90;;;;;;5027733;28;20088;-57
2023/08/12 07:13:22;;;;;;;3.28;2.97;;;19.60;99.90;;;;;;5027759;28;20025;-59
2023/08/12 07:15:47;;;;;;;3.70;2.42;;;19.70;99.90;;;;;;5029892;28;20512;-58
2023/08/12 07:18:13;;;;;;;7.25;3.05;;;19.80;99.90;;;;;;5033019;28;20120;-58
2023/08/12 07:20:39;;;;;;;4.15;2.45;;;19.90;99.90;;;;;;5032471;28;20040;-58
2023/08/12 07:23:04;;;;;;;2.33;2.13;;;19.90;99.90;;;;;;5030101;28;20111;-58
2023/08/12 07:25:30;;;;;;;3.97;2.15;;;20.00;99.90;;;;;;5025512;28;20021;-60
2023/08/12 07:27:56;;;;;;;2.80;2.50;;;20.10;99.90;;;;;;5027746;28;20021;-61
2023/08/12 07:30:21;;;;;;;2.72;2.53;;;20.20;99.90;;;;;;5025415;28;20030;-58
2023/08/12 07:32:47;;;;;;;3.15;2.83;;;20.30;99.90;;;;;;5030027;28;20083;-57
2023/08/12 07:35:12;;;;;;;2.53;2.33;;;20.30;99.90;;;;;;5024134;28;20017;-60
2023/08/12 07:37:38;;;;;;;2.67;2.47;;;20.40;99.90;;;;;;5021586;28;20030;-59
2023/08/12 07:40:04;;;;;;;3.17;2.50;;;20.60;99.90;;;;;;5025065;28;20136;-59
2023/08/12 07:42:30;;;;;;;3.15;2.83;;;20.60;99.90;;;;;;5027067;28;20029;-59
2023/08/12 07:44:55;;;;;;;2.78;2.47;;;20.70;99.90;;;;;;5028782;28;20087;-59
2023/08/12 07:47:21;;;;;;;4.22;2.08;;;20.80;99.90;;;;;;5033868;28;20493;-60
2023/08/12 07:49:46;;;;;;;2.75;2.30;;;20.80;99.90;;;;;;5030442;28;20033;-60
2023/08/12 07:52:12;;;;;;;3.17;2.55;;;20.80;99.90;;;;;;5029538;28;20044;-60
2023/08/12 07:54:38;;;;;;;4.30;2.67;;;20.70;99.90;;;;;;5023154;28;20049;-60
2023/08/12 07:57:03;;;;;;;4.50;2.42;;;20.70;99.90;;;;;;5023191;28;20017;-58
2023/08/12 07:59:29;;;;;;;2.83;2.63;;;20.70;99.90;;;;;;5025015;28;20041;-59
2023/08/12 08:01:55;;;;;;;6.88;2.67;;;20.70;99.90;;;;;;5027952;28;20138;-60
2023/08/12 08:04:20;;;;;;;3.40;2.83;;;20.70;99.90;;;;;;5021213;28;20040;-60
2023/08/12 08:06:46;;;;;;;3.55;2.60;;;20.80;99.90;;;;;;5016969;28;20109;-59
2023/08/12 08:09:11;;;;;;;3.38;3.08;;;20.80;99.90;;;;;;5022987;28;20083;-59
2023/08/12 08:11:37;;;;;;;3.92;3.35;;;20.90;99.90;;;;;;5024575;28;20087;-60
2023/08/12 08:14:03;;;;;;;4.38;3.45;;;21.00;99.90;;;;;;5023058;28;20390;-59
2023/08/12 08:16:28;;;;;;;3.33;3.10;;;21.00;99.90;;;;;;5027807;28;20058;-58
2023/08/12 08:18:57;;;;;;;3.92;3.63;;;21.00;99.90;;;;;;5026165;28;20387;-59
2023/08/12 08:21:22;;;;;;;3.22;2.90;;;21.30;99.90;;;;;;5024573;28;20108;-59
2023/08/12 08:23:48;;;;;;;5.28;3.17;;;21.40;99.90;;;;;;5027225;28;20469;-59
2023/08/12 08:26:15;;;;;;;3.83;3.05;;;21.70;99.90;;;;;;5025354;28;20025;-59
2023/08/12 08:28:41;;;;;;;4.95;3.50;;;21.80;99.90;;;;;;5028686;28;20034;-59
2023/08/12 08:31:07;;;;;;;5.55;2.85;;;22.00;99.90;;;;;;5025689;28;20171;-59
2023/08/12 08:33:32;;;;;;;4.07;3.33;;;22.10;99.90;;;;;;5025303;28;20465;-60
2023/08/12 08:35:58;;;;;;;4.55;2.10;;;22.30;99.90;;;;;;5027100;28;20070;-60
2023/08/12 08:38:23;;;;;;;3.92;3.03;;;22.30;99.90;;;;;;5024145;28;20017;-59
2023/08/12 08:40:50;;;;;;;4.35;2.65;;;22.40;99.90;;;;;;5027252;28;20063;-59
2023/08/12 08:43:22;;;;;;;3.70;2.53;;;22.40;99.90;;;;;;5026500;28;20901;-59
2023/08/12 08:45:52;;;;;;;4.30;2.53;;;22.60;99.90;;;;;;5025947;28;20038;-61
2023/08/12 08:48:18;;;;;;;3.22;2.60;;;22.70;99.90;;;;;;5029111;28;20111;-58
2023/08/12 08:50:45;;;;;;;3.20;2.47;;;22.80;99.90;;;;;;5033343;28;20431;-58
2023/08/12 08:53:12;;;;;;;3.83;2.53;;;22.90;99.90;;;;;;5009892;28;20418;-57
2023/08/12 08:55:41;;;;;;;3.63;2.60;;;23.00;99.90;;;;;;5008338;28;20037;-58
2023/08/12 08:58:06;;;;;;;2.88;2.67;;;22.90;99.90;;;;;;5004454;28;20033;-60
2023/08/12 09:00:32;;;;;;;2.78;2.17;;;22.90;99.90;;;;;;5005762;28;20083;-59
2023/08/12 09:02:58;;;;;;;2.60;1.92;;;22.80;99.90;;;;;;5010901;28;20026;-59
2023/08/12 09:05:25;;;;;;;2.50;2.30;;;22.70;99.90;;;;;;5013543;28;20068;-62
2023/08/12 09:07:51;;;;;;;3.03;2.40;;;22.80;99.90;;;;;;5024100;28;20037;-59
2023/08/12 09:10:20;;;;;;;2.90;2.50;;;22.70;99.90;;;;;;5031096;28;20485;-59
2023/08/12 09:12:46;;;;;;;2.28;2.05;;;22.80;99.90;;;;;;5030641;28;20029;-60
2023/08/12 09:15:12;;;;;;;1.92;1.83;;;22.90;99.90;;;;;;5028519;28;20026;-60
2023/08/12 09:17:38;;;;;;;2.63;2.22;;;22.90;99.90;;;;;;5026863;28;20045;-58
2023/08/12 09:20:11;;;;;;;3.05;2.17;;;22.90;99.90;;;;;;5025553;28;20075;-58
2023/08/12 09:22:41;;;;;;;2.95;2.33;;;23.10;99.90;;;;;;5028640;28;20049;-60
2023/08/12 09:25:08;;;;;;;16.10;2.72;;;23.20;99.90;;;;;;5028874;28;20018;-59
2023/08/12 09:27:36;;;;;;;4.50;2.53;;;23.40;99.90;;;;;;5028986;28;20391;-59
2023/08/12 09:30:03;;;;;;;4.38;2.63;;;23.50;99.90;;;;;;5029153;28;20053;-58
2023/08/12 09:32:29;;;;;;;2.33;2.13;;;23.60;99.90;;;;;;5030637;28;20035;-60
2023/08/12 09:34:59;;;;;;;3.08;2.00;;;23.60;99.90;;;;;;5030075;28;20382;-59
2023/08/12 09:37:24;;;;;;;4.40;2.10;;;23.60;99.90;;;;;;5028117;28;20030;-57
2023/08/12 09:39:53;;;;;;;2.40;2.20;;;23.70;99.90;;;;;;5030067;28;20045;-59
2023/08/12 09:42:19;;;;;;;3.40;2.00;;;23.70;99.90;;;;;;5032316;28;20030;-57
2023/08/12 09:44:45;;;;;;;2.88;2.30;;;23.60;99.90;;;;;;5029952;28;20014;-57
2023/08/12 09:47:10;;;;;;;4.30;2.03;;;23.70;99.90;;;;;;5033425;28;21045;-59
2023/08/12 09:49:38;;;;;;;2.55;1.95;;;23.80;99.90;;;;;;5033228;28;20017;-60
2023/08/12 09:52:04;;;;;;;2.45;2.15;;;23.90;99.90;;;;;;5033921;28;20049;-60
2023/08/12 09:54:34;;;;;;;4.47;1.98;;;23.90;99.90;;;;;;5033595;28;20450;-58
2023/08/12 09:57:01;;;;;;;3.27;1.97;;;24.00;99.90;;;;;;5031783;28;20021;-60
2023/08/12 09:59:35;;;;;;;3.72;2.17;;;24.20;99.90;;;;;;5034069;28;20248;-58
2023/08/12 10:02:06;;;;;;;2.10;1.90;;;24.60;99.90;;;;;;5031084;28;20030;-59
2023/08/12 10:04:40;;;;;;;2.28;2.08;;;25.00;99.90;;;;;;5033373;28;20025;-60
2023/08/12 10:07:07;;;;;;;2.63;1.90;;;25.30;99.90;;;;;;5026792;28;20053;-60
2023/08/12 10:09:33;;;;;;;2.10;1.95;;;25.50;99.90;;;;;;5026300;28;20374;-60
2023/08/12 10:11:59;;;;;;;3.65;2.22;;;25.60;99.90;;;;;;5029010;28;20473;-60
2023/08/12 10:14:25;;;;;;;3.25;2.58;;;25.90;99.90;;;;;;5032900;28;20024;-59
2023/08/12 10:16:52;;;;;;;6.22;2.35;;;25.90;99.90;;;;;;5031409;28;20160;-59
2023/08/12 10:19:21;;;;;;;4.63;1.98;;;25.90;99.90;;;;;;5030314;28;20128;-61
2023/08/12 10:21:49;;;;;;;3.10;2.15;;;25.90;99.90;;;;;;5029904;28;20800;-60
2023/08/12 10:24:16;;;;;;;2.35;1.95;;;26.00;99.90;;;;;;5026230;28;20409;-59
2023/08/12 10:26:42;;;;;;;2.72;2.42;;;25.90;99.90;;;;;;5022692;28;20037;-58
2023/08/12 10:29:08;;;;;;;2.10;1.90;;;25.90;99.90;;;;;;5034325;28;20033;-58
2023/08/12 10:31:34;;;;;;;2.38;1.85;;;26.00;99.90;;;;;;5033212;28;20056;-60
2023/08/12 10:34:00;;;;;;;2.78;2.13;;;26.00;99.90;;;;;;5019383;28;20517;-57
2023/08/12 10:36:31;;;;;;;2.03;1.92;;;26.00;99.90;;;;;;5022183;28;20026;-60
2023/08/12 10:38:57;;;;;;;4.47;1.80;;;26.10;99.90;;;;;;5022359;28;20025;-59
2023/08/12 10:41:25;;;;;;;3.53;1.92;;;26.10;99.90;;;;;;5029691;28;20068;-60
2023/08/12 10:44:01;;;;;;;2.45;1.90;;;26.10;99.90;;;;;;5028745;28;20065;-58
2023/08/12 10:46:36;;;;;;;4.00;2.90;;;26.00;99.90;;;;;;5029349;28;20749;-59
2023/08/12 10:49:09;;;;;;;2.80;2.30;;;26.00;99.90;;;;;;5029716;28;20057;-60
2023/08/12 10:51:43;;;;;;;3.33;2.00;;;26.00;99.90;;;;;;5029859;28;20053;-59
2023/08/12 10:54:26;;;;;;;3.85;1.90;;;26.20;99.90;;;;;;5024918;28;20030;-60
2023/08/12 10:57:05;;;;;;;2.72;1.80;;;26.40;99.90;;;;;;5026719;28;20389;-59
2023/08/12 10:59:46;;;;;;;4.50;2.10;;;26.40;99.90;;;;;;5031476;28;20493;-60
2023/08/12 11:02:36;;;;;;;2.08;1.83;;;26.60;99.90;;;;;;5028840;28;20486;-60
2023/08/12 11:05:09;;;;;;;2.85;1.63;;;26.70;99.90;;;;;;5039007;28;20082;-59
2023/08/12 11:07:43;;;;;;;2.22;2.03;;;26.80;99.90;;;;;;5025154;28;20022;-61
2023/08/12 11:10:18;;;;;;;2.30;2.10;;;26.80;99.90;;;;;;5024979;28;20026;-58
2023/08/12 11:12:54;;;;;;;2.45;1.80;;;26.90;99.90;;;;;;5026576;28;20044;-58
2023/08/12 11:15:29;;;;;;;1.70;1.52;;;27.00;99.90;;;;;;5028455;28;20026;-60
2023/08/12 11:17:55;;;;;;;2.05;1.85;;;27.00;99.90;;;;;;5028661;28;20442;-59
2023/08/12 11:20:21;;;;;;;2.40;2.05;;;27.20;99.90;;;;;;5033083;28;20047;-61
2023/08/12 11:22:47;;;;;;;1.75;1.65;;;27.30;99.90;;;;;;5025373;28;20075;-58
2023/08/12 11:25:14;;;;;;;1.63;1.52;;;27.50;99.90;;;;;;5024641;28;20087;-60
2023/08/12 11:27:48;;;;;;;1.65;1.55;;;27.60;99.90;;;;;;5027548;28;20029;-60
2023/08/12 11:30:19;;;;;;;2.40;1.73;;;27.80;99.90;;;;;;5027053;28;20540;-60
2023/08/12 11:32:46;;;;;;;2.53;1.60;;;27.90;99.90;;;;;;5027015;28;20397;-59
2023/08/12 11:35:13;;;;;;;1.70;1.50;;;28.00;99.90;;;;;;5029160;28;20497;-59
2023/08/12 11:37:42;;;;;;;4.65;1.88;;;28.10;99.90;;;;;;5027705;28;20033;-61
2023/08/12 11:40:10;;;;;;;1.73;1.63;;;28.20;99.90;;;;;;5028861;28;20429;-60
2023/08/12 11:42:37;;;;;;;2.88;1.80;;;28.40;99.00;;;;;;5030070;28;20156;-60
2023/08/12 11:45:07;;;;;;;2.20;1.40;;;28.60;99.90;;;;;;5027463;28;20137;-61
2023/08/12 11:47:38;;;;;;;2.65;1.45;;;28.70;99.90;;;;;;5024245;28;20093;-59
2023/08/12 11:50:05;;;;;;;5.13;1.75;;;28.70;97.20;;;;;;5025164;28;20025;-60
2023/08/12 11:52:31;;;;;;;2.63;1.60;;;28.90;97.60;;;;;;5028026;28;20033;-58
2023/08/12 11:54:57;;;;;;;2.28;1.80;;;28.90;99.90;;;;;;5027461;28;20061;-60
2023/08/12 11:57:23;;;;;;;2.00;1.80;;;29.00;99.90;;;;;;5026775;28;20029;-58
2023/08/12 11:59:50;;;;;;;2.33;1.80;;;29.10;95.10;;;;;;5024664;28;20103;-58
2023/08/12 12:02:16;;;;;;;2.75;1.50;;;29.00;98.80;;;;;;5023343;28;20025;-58
2023/08/12 12:04:43;;;;;;;3.78;1.60;;;28.90;94.60;;;;;;5028416;28;20091;-58
2023/08/12 12:07:38;;;;;;;1.70;1.60;;;28.70;92.30;;;;;;5027501;28;20559;-59
2023/08/12 12:10:05;;;;;;;3.70;1.70;;;28.70;93.50;;;;;;5024708;28;20389;-59
2023/08/12 12:12:36;;;;;;;2.25;1.40;;;28.80;97.80;;;;;;5025720;28;20029;-59
2023/08/12 12:15:03;;;;;;;1.95;1.70;;;29.10;94.80;;;;;;5028309;28;20029;-60
2023/08/12 12:17:29;;;;;;;2.40;1.50;;;29.30;99.90;;;;;;5029842;28;20445;-61
2023/08/12 12:19:59;;;;;;;2.40;1.48;;;29.80;99.90;;;;;;5029955;28;20041;-58
2023/08/12 12:22:35;;;;;;;2.45;1.60;;;30.00;93.70;;;;;;5027569;28;20489;-58
2023/08/12 12:25:06;;;;;;;1.55;1.30;;;30.00;96.60;;;;;;5031836;28;20452;-59
2023/08/12 12:27:33;;;;;;;1.75;1.60;;;30.00;99.90;;;;;;5029476;28;20045;-59
2023/08/12 12:30:00;;;;;;;2.80;1.90;;;30.00;99.90;;;;;;5027414;28;20100;-58
2023/08/12 12:32:26;;;;;;;1.58;1.27;;;29.90;94.20;;;;;;5033547;28;20057;-60
2023/08/12 12:34:52;;;;;;;2.67;1.33;;;29.80;99.90;;;;;;5024457;28;20079;-63
2023/08/12 12:37:18;;;;;;;1.73;1.60;;;29.80;99.90;;;;;;5020995;28;20091;-60
2023/08/12 12:39:44;;;;;;;2.13;1.60;;;29.80;99.90;;;;;;5025044;28;20433;-60
2023/08/12 12:42:10;;;;;;;3.10;1.52;;;29.80;90.80;;;;;;5025619;28;20410;-59
2023/08/12 12:44:36;;;;;;;2.17;1.70;;;29.80;99.90;;;;;;5025966;28;20017;-59
2023/08/12 12:47:03;;;;;;;2.17;1.83;;;29.70;91.30;;;;;;5029772;28;20077;-58